createdAt,value
2018-05-25T00:00:53.326Z,1021.11
2018-05-25T00:02:02.194Z,1021.12
2018-05-25T00:03:11.333Z,1021.09
2018-05-25T00:04:20.250Z,1021.07
2018-05-25T00:05:29.116Z,1021.11
2018-05-25T00:06:37.981Z,1021.13
2018-05-25T00:07:46.845Z,1021.12
2018-05-25T00:08:55.707Z,1021.15
2018-05-25T00:10:05.579Z,1021.14
2018-05-25T00:11:14.444Z,1021.13
2018-05-25T00:12:23.584Z,1021.15
2018-05-25T00:13:32.452Z,1021.09
2018-05-25T00:14:41.318Z,1021.1
2018-05-25T00:15:50.231Z,1021.09
2018-05-25T00:16:59.094Z,1021.1
2018-05-25T00:18:08.232Z,1021.06
2018-05-25T00:19:17.092Z,1021.11
2018-05-25T00:20:25.953Z,1021.09
2018-05-25T00:21:34.865Z,1021.03
2018-05-25T00:22:43.729Z,1021.06
2018-05-25T00:23:52.592Z,1021.09
2018-05-25T00:25:01.454Z,1021.06
2018-05-25T00:26:10.594Z,1021.13
2018-05-25T00:27:19.461Z,1021.09
2018-05-25T00:28:28.600Z,1021.11
2018-05-25T00:29:37.740Z,1021.14
2018-05-25T00:30:46.879Z,1021.17
2018-05-25T00:31:56.018Z,1021.12
2018-05-25T00:33:04.981Z,1021.12
2018-05-25T00:34:13.844Z,1021.1
2018-05-25T00:35:22.981Z,1021.12
2018-05-25T00:36:31.842Z,1021.1
2018-05-25T00:37:40.705Z,1021.06
2018-05-25T00:38:49.896Z,1021.08
2018-05-25T00:39:58.758Z,1021.09
2018-05-25T00:41:07.621Z,1021.06
2018-05-25T00:42:16.483Z,1021.07
2018-05-25T00:43:25.346Z,1021.1
2018-05-25T00:44:34.485Z,1021.07
2018-05-25T00:45:43.348Z,1021.07
2018-05-25T00:46:52.209Z,1021.05
2018-05-25T00:48:01.069Z,1021.02
2018-05-25T00:49:09.933Z,1021.01
2018-05-25T00:50:18.981Z,1021.03
2018-05-25T00:51:28.111Z,1021.05
2018-05-25T00:52:36.973Z,1021.04
2018-05-25T00:53:46.399Z,1021
2018-05-25T00:54:55.536Z,1020.95
2018-05-25T00:56:04.674Z,1020.98
2018-05-25T00:57:13.534Z,1020.95
2018-05-25T00:58:22.399Z,1020.98
2018-05-25T00:59:31.263Z,1020.99
2018-05-25T01:00:40.126Z,1020.91
2018-05-25T01:01:48.989Z,1020.95
2018-05-25T01:02:58.125Z,1020.98
2018-05-25T01:04:07.267Z,1020.91
2018-05-25T01:05:16.130Z,1020.96
2018-05-25T01:06:25.272Z,1020.97
2018-05-25T01:07:34.759Z,1020.96
2018-05-25T01:08:43.635Z,1020.91
2018-05-25T01:09:52.776Z,1020.94
2018-05-25T01:11:01.938Z,1020.97
2018-05-25T01:12:11.076Z,1020.94
2018-05-25T01:13:20.569Z,1020.97
2018-05-25T01:14:29.710Z,1020.95
2018-05-25T01:15:38.576Z,1020.96
2018-05-25T01:16:47.439Z,1020.97
2018-05-25T01:17:56.305Z,1020.98
2018-05-25T01:19:05.599Z,1020.97
2018-05-25T01:20:14.738Z,1020.96
2018-05-25T01:21:23.601Z,1020.93
2018-05-25T01:22:32.743Z,1020.93
2018-05-25T01:23:41.607Z,1020.94
2018-05-25T01:24:50.851Z,1020.93
2018-05-25T01:25:59.714Z,1020.91
2018-05-25T01:27:08.852Z,1020.9
2018-05-25T01:28:17.716Z,1020.92
2018-05-25T01:29:26.577Z,1020.92
2018-05-25T01:30:35.487Z,1020.91
2018-05-25T01:31:44.628Z,1020.94
2018-05-25T01:32:53.491Z,1020.91
2018-05-25T01:34:02.355Z,1020.9
2018-05-25T01:35:11.317Z,1020.89
2018-05-25T01:36:20.329Z,1020.87
2018-05-25T01:37:29.473Z,1020.91
2018-05-25T01:38:38.607Z,1020.88
2018-05-25T01:39:48.024Z,1020.87
2018-05-25T01:40:56.885Z,1020.88
2018-05-25T01:42:06.180Z,1020.85
2018-05-25T01:43:15.043Z,1020.87
2018-05-25T01:44:23.904Z,1020.87
2018-05-25T01:45:32.767Z,1020.83
2018-05-25T01:46:41.629Z,1020.85
2018-05-25T01:47:50.493Z,1020.8
2018-05-25T01:48:59.359Z,1020.86
2018-05-25T01:50:08.770Z,1020.81
2018-05-25T01:51:17.910Z,1020.79
2018-05-25T01:52:27.330Z,1020.8
2018-05-25T01:53:36.341Z,1020.84
2018-05-25T01:54:45.208Z,1020.83
2018-05-25T01:55:54.069Z,1020.78
2018-05-25T01:57:02.936Z,1020.79
2018-05-25T01:58:12.070Z,1020.79
2018-05-25T01:59:21.222Z,1020.8
2018-05-25T02:00:30.084Z,1020.82
2018-05-25T02:01:38.945Z,1020.83
2018-05-25T02:02:47.813Z,1020.79
2018-05-25T02:03:56.675Z,1020.81
2018-05-25T02:05:05.535Z,1020.85
2018-05-25T02:06:14.398Z,1020.84
2018-05-25T02:07:23.260Z,1020.85
2018-05-25T02:08:32.125Z,1020.82
2018-05-25T02:09:41.263Z,1020.81
2018-05-25T02:10:50.835Z,1020.75
2018-05-25T02:11:59.699Z,1020.8
2018-05-25T02:13:08.837Z,1020.82
2018-05-25T02:14:17.699Z,1020.85
2018-05-25T02:15:26.559Z,1020.82
2018-05-25T02:16:35.469Z,1020.8
2018-05-25T02:17:44.620Z,1020.76
2018-05-25T02:18:53.480Z,1020.79
2018-05-25T02:20:02.351Z,1020.81
2018-05-25T02:21:11.491Z,1020.76
2018-05-25T02:22:20.506Z,1020.77
2018-05-25T02:23:29.368Z,1020.76
2018-05-25T02:24:38.228Z,1020.77
2018-05-25T02:25:47.090Z,1020.77
2018-05-25T02:26:56.232Z,1020.72
2018-05-25T02:28:05.371Z,1020.73
2018-05-25T02:29:14.237Z,1020.72
2018-05-25T02:30:23.098Z,1020.72
2018-05-25T02:31:32.237Z,1020.7
2018-05-25T02:32:41.101Z,1020.7
2018-05-25T02:33:50.072Z,1020.7
2018-05-25T02:34:58.936Z,1020.68
2018-05-25T02:36:07.801Z,1020.69
2018-05-25T02:37:16.940Z,1020.68
2018-05-25T02:38:25.805Z,1020.63
2018-05-25T02:39:34.777Z,1020.62
2018-05-25T02:40:43.915Z,1020.68
2018-05-25T02:41:53.071Z,1020.68
2018-05-25T02:43:01.936Z,1020.69
2018-05-25T02:44:10.800Z,1020.69
2018-05-25T02:45:19.712Z,1020.68
2018-05-25T02:46:28.852Z,1020.69
2018-05-25T02:47:37.711Z,1020.67
2018-05-25T02:48:46.573Z,1020.67
2018-05-25T02:49:55.914Z,1020.69
2018-05-25T02:51:04.934Z,1020.7
2018-05-25T02:52:14.366Z,1020.7
2018-05-25T02:53:23.512Z,1020.73
2018-05-25T02:54:32.655Z,1020.71
2018-05-25T02:55:41.519Z,1020.74
2018-05-25T02:56:50.666Z,1020.69
2018-05-25T02:57:59.821Z,1020.7
2018-05-25T02:59:08.683Z,1020.71
2018-05-25T03:00:17.826Z,1020.68
2018-05-25T03:01:26.696Z,1020.71
2018-05-25T03:02:36.186Z,1020.72
2018-05-25T03:03:45.046Z,1020.69
2018-05-25T03:04:53.907Z,1020.73
2018-05-25T03:06:03.331Z,1020.71
2018-05-25T03:07:12.504Z,1020.74
2018-05-25T03:08:21.922Z,1020.75
2018-05-25T03:09:30.787Z,1020.74
2018-05-25T03:10:39.649Z,1020.77
2018-05-25T03:11:48.515Z,1020.71
2018-05-25T03:12:57.932Z,1020.76
2018-05-25T03:14:06.844Z,1020.78
2018-05-25T03:15:15.708Z,1020.76
2018-05-25T03:16:24.848Z,1020.78
2018-05-25T03:17:33.712Z,1020.77
2018-05-25T03:18:42.574Z,1020.78
2018-05-25T03:19:51.438Z,1020.73
2018-05-25T03:21:00.854Z,1020.78
2018-05-25T03:22:09.714Z,1020.79
2018-05-25T03:23:18.579Z,1020.81
2018-05-25T03:24:27.437Z,1020.81
2018-05-25T03:25:36.397Z,1020.79
2018-05-25T03:26:45.536Z,1020.81
2018-05-25T03:27:54.396Z,1020.82
2018-05-25T03:29:03.539Z,1020.84
2018-05-25T03:30:12.403Z,1020.84
2018-05-25T03:31:21.367Z,1020.83
2018-05-25T03:32:30.792Z,1020.84
2018-05-25T03:33:39.654Z,1020.91
2018-05-25T03:34:48.516Z,1020.88
2018-05-25T03:35:57.379Z,1020.89
2018-05-25T03:37:06.296Z,1020.9
2018-05-25T03:38:15.154Z,1020.88
2018-05-25T03:39:24.016Z,1020.91
2018-05-25T03:40:32.880Z,1020.87
2018-05-25T03:41:42.027Z,1020.88
2018-05-25T03:42:50.887Z,1020.86
2018-05-25T03:43:59.748Z,1020.87
2018-05-25T03:45:08.608Z,1020.87
2018-05-25T03:46:17.471Z,1020.86
2018-05-25T03:47:26.332Z,1020.86
2018-05-25T03:48:35.546Z,1020.87
2018-05-25T03:49:44.409Z,1020.9
2018-05-25T03:50:53.270Z,1020.9
2018-05-25T03:52:02.414Z,1020.88
2018-05-25T03:53:11.277Z,1020.92
2018-05-25T03:54:20.343Z,1020.92
2018-05-25T03:55:29.528Z,1020.96
2018-05-25T03:56:38.669Z,1020.97
2018-05-25T03:57:47.531Z,1020.94
2018-05-25T03:58:56.391Z,1020.92
2018-05-25T04:00:05.455Z,1020.95
2018-05-25T04:01:14.316Z,1020.96
2018-05-25T04:02:23.182Z,1020.95
2018-05-25T04:03:32.044Z,1020.97
2018-05-25T04:04:40.905Z,1020.96
2018-05-25T04:05:50.194Z,1020.97
2018-05-25T04:06:59.054Z,1021.01
2018-05-25T04:08:08.205Z,1021
2018-05-25T04:09:17.349Z,1020.98
2018-05-25T04:10:26.213Z,1021.04
2018-05-25T04:11:35.274Z,1021.06
2018-05-25T04:12:44.134Z,1021.01
2018-05-25T04:13:53.285Z,1021.02
2018-05-25T04:15:02.152Z,1021
2018-05-25T04:16:11.060Z,1021.08
2018-05-25T04:17:20.075Z,1021.03
2018-05-25T04:18:29.211Z,1021.04
2018-05-25T04:19:38.075Z,1021.09
2018-05-25T04:20:46.937Z,1021.05
2018-05-25T04:21:55.799Z,1021.06
2018-05-25T04:23:04.661Z,1021.02
2018-05-25T04:24:13.519Z,1021.02
2018-05-25T04:25:22.384Z,1021.06
2018-05-25T04:26:31.252Z,1021.04
2018-05-25T04:27:40.116Z,1021.04
2018-05-25T04:28:49.409Z,1021.02
2018-05-25T04:29:58.270Z,1021.01
2018-05-25T04:31:07.132Z,1020.96
2018-05-25T04:32:15.994Z,1020.97
2018-05-25T04:33:24.857Z,1020.98
2018-05-25T04:34:33.997Z,1021
2018-05-25T04:35:42.902Z,1020.98
2018-05-25T04:36:51.723Z,1021
2018-05-25T04:38:01.144Z,1020.98
2018-05-25T04:39:10.007Z,1021.02
2018-05-25T04:40:19.306Z,1021.07
2018-05-25T04:41:28.447Z,1021
2018-05-25T04:42:37.308Z,1021.05
2018-05-25T04:43:46.450Z,1021.05
2018-05-25T04:44:55.312Z,1021.05
2018-05-25T04:46:04.800Z,1021.04
2018-05-25T04:47:13.668Z,1021.05
2018-05-25T04:48:22.531Z,1021.02
2018-05-25T04:49:31.398Z,1021.03
2018-05-25T04:50:40.258Z,1021
2018-05-25T04:51:49.171Z,1021
2018-05-25T04:52:58.312Z,1020.98
2018-05-25T04:54:07.499Z,1020.98
2018-05-25T04:55:16.359Z,1021.01
2018-05-25T04:56:25.219Z,1021.01
2018-05-25T04:57:34.134Z,1021.01
2018-05-25T04:58:43.273Z,1021.02
2018-05-25T04:59:52.421Z,1021.04
2018-05-25T05:01:01.288Z,1021.03
2018-05-25T05:02:10.431Z,1021.04
2018-05-25T05:03:19.393Z,1021.08
2018-05-25T05:04:28.254Z,1021.07
2018-05-25T05:05:37.117Z,1021.06
2018-05-25T05:06:45.977Z,1021.08
2018-05-25T05:07:54.839Z,1021.05
2018-05-25T05:09:03.799Z,1021.09
2018-05-25T05:10:12.661Z,1021.09
2018-05-25T05:11:21.526Z,1021.09
2018-05-25T05:12:30.386Z,1021.12
2018-05-25T05:13:39.249Z,1021.12
2018-05-25T05:14:48.663Z,1021.15
2018-05-25T05:15:57.504Z,1021.13
2018-05-25T05:17:06.644Z,1021.14
2018-05-25T05:18:15.505Z,1021.13
2018-05-25T05:19:24.368Z,1021.13
2018-05-25T05:20:33.382Z,1021.11
2018-05-25T05:21:42.254Z,1021.11
2018-05-25T05:22:51.117Z,1021.15
2018-05-25T05:24:00.267Z,1021.1
2018-05-25T05:25:09.413Z,1021.09
2018-05-25T05:26:18.662Z,1021.13
2018-05-25T05:27:28.085Z,1021.13
2018-05-25T05:28:36.945Z,1021.04
2018-05-25T05:29:45.810Z,1021.09
2018-05-25T05:30:54.674Z,1021.05
2018-05-25T05:32:03.826Z,1021.13
2018-05-25T05:33:12.686Z,1021.06
2018-05-25T05:34:21.549Z,1021.13
2018-05-25T05:35:30.690Z,1021.13
2018-05-25T05:36:39.557Z,1021.14
2018-05-25T05:37:48.850Z,1021.17
2018-05-25T05:38:57.717Z,1021.16
2018-05-25T05:40:06.860Z,1021.12
2018-05-25T05:41:15.717Z,1021.11
2018-05-25T05:42:24.579Z,1021.16
2018-05-25T05:43:34.354Z,1021.13
2018-05-25T05:44:43.778Z,1021.2
2018-05-25T05:45:52.641Z,1021.23
2018-05-25T05:47:01.780Z,1021.19
2018-05-25T05:48:10.654Z,1021.25
2018-05-25T05:49:19.757Z,1021.25
2018-05-25T05:50:28.622Z,1021.23
2018-05-25T05:51:37.765Z,1021.23
2018-05-25T05:52:46.629Z,1021.21
2018-05-25T05:53:55.492Z,1021.22
2018-05-25T05:55:04.406Z,1021.23
2018-05-25T05:56:13.269Z,1021.24
2018-05-25T05:57:22.131Z,1021.26
2018-05-25T05:58:31.278Z,1021.22
2018-05-25T05:59:40.414Z,1021.21
2018-05-25T06:00:49.428Z,1021.22
2018-05-25T06:01:58.291Z,1021.2
2018-05-25T06:03:07.431Z,1021.18
2018-05-25T06:04:16.302Z,1021.15
2018-05-25T06:05:25.168Z,1021.17
2018-05-25T06:06:34.034Z,1021.13
2018-05-25T06:07:43.470Z,1021.17
2018-05-25T06:08:52.610Z,1021.18
2018-05-25T06:10:01.477Z,1021.17
2018-05-25T06:11:10.907Z,1021.17
2018-05-25T06:12:19.774Z,1021.2
2018-05-25T06:13:28.630Z,1021.22
2018-05-25T06:14:37.495Z,1021.22
2018-05-25T06:15:46.634Z,1021.24
2018-05-25T06:16:55.495Z,1021.31
2018-05-25T06:18:04.464Z,1021.29
2018-05-25T06:19:13.336Z,1021.32
2018-05-25T06:20:22.204Z,1021.26
2018-05-25T06:21:31.343Z,1021.31
2018-05-25T06:22:40.210Z,1021.31
2018-05-25T06:23:49.178Z,1021.34
2018-05-25T06:24:58.600Z,1021.27
2018-05-25T06:26:07.461Z,1021.25
2018-05-25T06:27:16.379Z,1021.26
2018-05-25T06:28:25.239Z,1021.27
2018-05-25T06:29:34.255Z,1021.25
2018-05-25T06:30:43.117Z,1021.23
2018-05-25T06:31:52.260Z,1021.22
2018-05-25T06:33:01.122Z,1021.28
2018-05-25T06:34:09.986Z,1021.23
2018-05-25T06:35:19.100Z,1021.25
2018-05-25T06:36:28.243Z,1021.23
2018-05-25T06:37:37.383Z,1021.22
2018-05-25T06:38:46.529Z,1021.22
2018-05-25T06:39:55.393Z,1021.21
2018-05-25T06:41:04.611Z,1021.17
2018-05-25T06:42:13.475Z,1021.21
2018-05-25T06:43:22.354Z,1021.22
2018-05-25T06:44:31.217Z,1021.21
2018-05-25T06:45:40.650Z,1021.26
2018-05-25T06:46:49.847Z,1021.22
2018-05-25T06:47:58.711Z,1021.24
2018-05-25T06:49:07.579Z,1021.29
2018-05-25T06:50:16.447Z,1021.29
2018-05-25T06:51:25.307Z,1021.28
2018-05-25T06:52:34.320Z,1021.31
2018-05-25T06:53:43.185Z,1021.32
2018-05-25T06:54:52.049Z,1021.41
2018-05-25T06:56:00.917Z,1021.39
2018-05-25T06:57:09.783Z,1021.42
2018-05-25T06:58:19.096Z,1021.38
2018-05-25T06:59:27.962Z,1021.37
2018-05-25T07:00:37.107Z,1021.4
2018-05-25T07:01:45.968Z,1021.42
2018-05-25T07:02:55.114Z,1021.45
2018-05-25T07:04:04.339Z,1021.41
2018-05-25T07:05:13.738Z,1021.43
2018-05-25T07:06:22.882Z,1021.4
2018-05-25T07:07:32.021Z,1021.41
2018-05-25T07:08:40.885Z,1021.41
2018-05-25T07:09:49.855Z,1021.41
2018-05-25T07:10:58.996Z,1021.43
2018-05-25T07:12:08.138Z,1021.41
2018-05-25T07:13:17.011Z,1021.48
2018-05-25T07:14:25.872Z,1021.41
2018-05-25T07:15:34.788Z,1021.39
2018-05-25T07:16:43.651Z,1021.41
2018-05-25T07:17:52.800Z,1021.44
2018-05-25T07:19:01.664Z,1021.38
2018-05-25T07:20:10.530Z,1021.43
2018-05-25T07:21:19.720Z,1021.39
2018-05-25T07:22:28.582Z,1021.45
2018-05-25T07:23:37.448Z,1021.38
2018-05-25T07:24:46.310Z,1021.4
2018-05-25T07:25:55.453Z,1021.38
2018-05-25T07:27:05.019Z,1021.41
2018-05-25T07:28:14.155Z,1021.45
2018-05-25T07:29:23.018Z,1021.37
2018-05-25T07:30:31.882Z,1021.42
2018-05-25T07:31:40.752Z,1021.4
2018-05-25T07:32:50.337Z,1021.42
2018-05-25T07:33:59.481Z,1021.47
2018-05-25T07:35:08.905Z,1021.45
2018-05-25T07:36:17.772Z,1021.47
2018-05-25T07:37:26.635Z,1021.45
2018-05-25T07:38:35.648Z,1021.45
2018-05-25T07:39:44.513Z,1021.44
2018-05-25T07:40:53.380Z,1021.46
2018-05-25T07:42:02.522Z,1021.46
2018-05-25T07:43:11.386Z,1021.51
2018-05-25T07:44:20.627Z,1021.48
2018-05-25T07:45:29.492Z,1021.4
2018-05-25T07:46:38.635Z,1021.38
2018-05-25T07:47:47.497Z,1021.41
2018-05-25T07:48:56.361Z,1021.38
2018-05-25T07:50:05.629Z,1021.38
2018-05-25T07:51:14.778Z,1021.4
2018-05-25T07:52:23.640Z,1021.39
2018-05-25T07:53:32.504Z,1021.39
2018-05-25T07:54:41.651Z,1021.4
2018-05-25T07:55:50.997Z,1021.38
2018-05-25T07:56:59.861Z,1021.34
2018-05-25T07:58:09.005Z,1021.35
2018-05-25T07:59:17.869Z,1021.38
2018-05-25T08:00:26.734Z,1021.41
2018-05-25T08:01:35.647Z,1021.39
2018-05-25T08:02:44.510Z,1021.38
2018-05-25T08:03:53.375Z,1021.4
2018-05-25T08:05:02.239Z,1021.37
2018-05-25T08:06:11.104Z,1021.33
2018-05-25T08:07:20.446Z,1021.35
2018-05-25T08:08:29.311Z,1021.34
2018-05-25T08:09:38.181Z,1021.32
2018-05-25T08:10:47.330Z,1021.31
2018-05-25T08:11:56.252Z,1021.35
2018-05-25T08:13:05.164Z,1021.32
2018-05-25T08:14:14.029Z,1021.23
2018-05-25T08:15:22.894Z,1021.26
2018-05-25T08:16:31.757Z,1021.25
2018-05-25T08:17:40.627Z,1021.21
2018-05-25T08:18:50.117Z,1021.23
2018-05-25T08:19:58.985Z,1021.26
2018-05-25T08:21:08.124Z,1021.25
2018-05-25T08:22:16.991Z,1021.21
2018-05-25T08:23:25.855Z,1021.25
2018-05-25T08:24:34.869Z,1021.24
2018-05-25T08:25:43.733Z,1021.23
2018-05-25T08:26:52.599Z,1021.21
2018-05-25T08:28:01.464Z,1021.27
2018-05-25T08:29:10.335Z,1021.27
2018-05-25T08:30:19.934Z,1021.23
2018-05-25T08:31:29.061Z,1021.2
2018-05-25T08:32:38.486Z,1021.2
2018-05-25T08:33:47.354Z,1021.18
2018-05-25T08:34:56.494Z,1021.27
2018-05-25T08:36:05.788Z,1021.23
2018-05-25T08:37:14.934Z,1021.27
2018-05-25T08:38:23.796Z,1021.29
2018-05-25T08:39:32.664Z,1021.26
2018-05-25T08:40:41.534Z,1021.28
2018-05-25T08:41:50.751Z,1021.24
2018-05-25T08:42:59.894Z,1021.24
2018-05-25T08:44:08.760Z,1021.22
2018-05-25T08:45:17.625Z,1021.23
2018-05-25T08:46:26.496Z,1021.24
2018-05-25T08:47:35.359Z,1021.25
2018-05-25T08:48:44.228Z,1021.25
2018-05-25T08:49:53.093Z,1021.22
2018-05-25T08:51:01.961Z,1021.22
2018-05-25T08:52:10.828Z,1021.22
2018-05-25T08:53:19.844Z,1021.18
2018-05-25T08:54:28.711Z,1021.18
2018-05-25T08:55:37.857Z,1021.2
2018-05-25T08:56:47.000Z,1021.18
2018-05-25T08:57:55.871Z,1021.24
2018-05-25T08:59:04.879Z,1021.2
2018-05-25T09:00:13.749Z,1021.18
2018-05-25T09:01:22.655Z,1021.21
2018-05-25T09:02:31.759Z,1021.28
2018-05-25T09:03:40.628Z,1021.24
2018-05-25T09:04:49.873Z,1021.28
2018-05-25T09:05:59.017Z,1021.23
2018-05-25T09:07:07.883Z,1021.22
2018-05-25T09:08:16.754Z,1021.25
2018-05-25T09:09:25.619Z,1021.23
2018-05-25T09:10:35.090Z,1021.21
2018-05-25T09:11:43.955Z,1021.24
2018-05-25T09:12:52.823Z,1021.24
2018-05-25T09:14:01.687Z,1021.17
2018-05-25T09:15:10.554Z,1021.17
2018-05-25T09:16:19.421Z,1021.23
2018-05-25T09:17:28.291Z,1021.18
2018-05-25T09:18:37.157Z,1021.25
2018-05-25T09:19:46.027Z,1021.21
2018-05-25T09:20:54.893Z,1021.23
2018-05-25T09:22:03.810Z,1021.22
2018-05-25T09:23:12.679Z,1021.21
2018-05-25T09:24:21.550Z,1021.18
2018-05-25T09:25:30.416Z,1021.18
2018-05-25T09:26:39.284Z,1021.22
2018-05-25T09:27:48.300Z,1021.13
2018-05-25T09:28:57.172Z,1021.16
2018-05-25T09:30:06.038Z,1021.24
2018-05-25T09:31:15.465Z,1021.21
2018-05-25T09:32:24.606Z,1021.15
2018-05-25T09:33:34.004Z,1021.12
2018-05-25T09:34:43.149Z,1021.14
2018-05-25T09:35:52.014Z,1021.18
2018-05-25T09:37:00.880Z,1021.22
2018-05-25T09:38:09.746Z,1021.18
2018-05-25T09:39:18.861Z,1021.2
2018-05-25T09:40:28.006Z,1021.27
2018-05-25T09:41:36.873Z,1021.24
2018-05-25T09:42:45.743Z,1021.2
2018-05-25T09:43:54.607Z,1021.23
2018-05-25T09:45:03.524Z,1021.21
2018-05-25T09:46:12.393Z,1021.28
2018-05-25T09:47:21.539Z,1021.22
2018-05-25T09:48:30.684Z,1021.27
2018-05-25T09:49:39.553Z,1021.25
2018-05-25T09:50:48.423Z,1021.23
2018-05-25T09:51:57.288Z,1021.22
2018-05-25T09:53:06.154Z,1021.19
2018-05-25T09:54:15.018Z,1021.2
2018-05-25T09:55:23.887Z,1021.27
2018-05-25T09:56:32.805Z,1021.28
2018-05-25T09:57:41.678Z,1021.23
2018-05-25T09:58:51.094Z,1021.21
2018-05-25T10:00:00.523Z,1021.25
2018-05-25T10:01:09.669Z,1021.28
2018-05-25T10:02:18.887Z,1021.21
2018-05-25T10:03:27.752Z,1021.15
2018-05-25T10:04:36.618Z,1021.17
2018-05-25T10:05:45.485Z,1021.1
2018-05-25T10:06:54.354Z,1021.16
2018-05-25T10:08:03.381Z,1021.07
2018-05-25T10:09:12.240Z,1021.12
2018-05-25T10:10:21.107Z,1021.09
2018-05-25T10:11:29.972Z,1021.14
2018-05-25T10:12:38.840Z,1021.17
2018-05-25T10:13:48.036Z,1021.12
2018-05-25T10:14:56.902Z,1021.07
2018-05-25T10:16:05.768Z,1021.14
2018-05-25T10:17:14.635Z,1021.23
2018-05-25T10:18:23.513Z,1021.19
2018-05-25T10:19:32.723Z,1021.28
2018-05-25T10:20:41.590Z,1021.32
2018-05-25T10:21:50.458Z,1021.28
2018-05-25T10:22:59.604Z,1021.23
2018-05-25T10:24:08.475Z,1021.3
2018-05-25T10:25:17.772Z,1021.26
2018-05-25T10:26:26.639Z,1021.18
2018-05-25T10:27:35.510Z,1021.21
2018-05-25T10:28:44.701Z,1021.27
2018-05-25T10:29:53.914Z,1021.21
2018-05-25T10:31:03.212Z,1021.22
2018-05-25T10:32:12.079Z,1021.16
2018-05-25T10:33:20.946Z,1021.2
2018-05-25T10:34:29.817Z,1021.24
2018-05-25T10:35:38.681Z,1021.21
2018-05-25T10:36:47.879Z,1021.18
2018-05-25T10:37:56.744Z,1021.23
2018-05-25T10:39:05.610Z,1021.17
2018-05-25T10:40:14.479Z,1021.17
2018-05-25T10:41:23.349Z,1021.04
2018-05-25T10:42:32.368Z,1021.01
2018-05-25T10:43:41.240Z,1021.07
2018-05-25T10:44:50.105Z,1021.07
2018-05-25T10:45:58.972Z,1021.02
2018-05-25T10:47:07.850Z,1021.08
2018-05-25T10:48:17.054Z,1021.02
2018-05-25T10:49:25.922Z,1021.05
2018-05-25T10:50:34.792Z,1021.02
2018-05-25T10:51:43.661Z,1020.98
2018-05-25T10:52:52.529Z,1020.95
2018-05-25T10:54:01.598Z,1020.96
2018-05-25T10:55:10.750Z,1021.1
2018-05-25T10:56:19.617Z,1021.09
2018-05-25T10:57:28.484Z,1021.11
2018-05-25T10:58:37.351Z,1021.04
2018-05-25T10:59:46.219Z,1021.04
2018-05-25T11:00:55.089Z,1021
2018-05-25T11:02:03.959Z,1020.96
2018-05-25T11:03:12.842Z,1020.96
2018-05-25T11:04:21.989Z,1020.9
2018-05-25T11:05:31.509Z,1020.94
2018-05-25T11:06:40.377Z,1020.96
2018-05-25T11:07:49.243Z,1020.99
2018-05-25T11:08:58.109Z,1020.99
2018-05-25T11:10:06.976Z,1020.99
2018-05-25T11:11:15.996Z,1020.95
2018-05-25T11:12:25.141Z,1021
2018-05-25T11:13:34.010Z,1020.93
2018-05-25T11:14:42.878Z,1020.95
2018-05-25T11:15:51.766Z,1020.91
2018-05-25T11:17:00.713Z,1020.84
2018-05-25T11:18:09.860Z,1020.86
2018-05-25T11:19:18.732Z,1020.85
2018-05-25T11:20:28.209Z,1020.91
2018-05-25T11:21:37.082Z,1020.84
2018-05-25T11:22:46.576Z,1020.87
2018-05-25T11:23:55.445Z,1020.87
2018-05-25T11:25:04.598Z,1020.81
2018-05-25T11:26:13.744Z,1020.78
2018-05-25T11:27:22.612Z,1020.82
2018-05-25T11:28:31.531Z,1020.77
2018-05-25T11:29:40.401Z,1020.75
2018-05-25T11:30:49.547Z,1020.73
2018-05-25T11:31:58.417Z,1020.77
2018-05-25T11:33:07.289Z,1020.83
2018-05-25T11:34:16.358Z,1020.78
2018-05-25T11:35:25.505Z,1020.71
2018-05-25T11:36:34.375Z,1020.71
2018-05-25T11:37:43.251Z,1020.64
2018-05-25T11:38:52.400Z,1020.65
2018-05-25T11:40:01.365Z,1020.63
2018-05-25T11:41:10.236Z,1020.61
2018-05-25T11:42:19.106Z,1020.54
2018-05-25T11:43:27.973Z,1020.56
2018-05-25T11:44:36.842Z,1020.56
2018-05-25T11:45:46.138Z,1020.54
2018-05-25T11:46:55.284Z,1020.6
2018-05-25T11:48:04.154Z,1020.54
2018-05-25T11:49:13.773Z,1020.64
2018-05-25T11:50:22.925Z,1020.61
2018-05-25T11:51:32.519Z,1020.69
2018-05-25T11:52:42.223Z,1020.72
2018-05-25T11:53:51.091Z,1020.68
2018-05-25T11:54:59.963Z,1020.75
2018-05-25T11:56:08.837Z,1020.62
2018-05-25T11:57:18.155Z,1020.55
2018-05-25T11:58:27.304Z,1020.55
2018-05-25T11:59:36.175Z,1020.59
2018-05-25T12:00:45.327Z,1020.57
2018-05-25T12:01:54.602Z,1020.61
2018-05-25T12:03:03.875Z,1020.57
2018-05-25T12:04:12.747Z,1020.53
2018-05-25T12:05:21.621Z,1020.56
2018-05-25T12:06:30.496Z,1020.51
2018-05-25T12:07:39.701Z,1020.49
2018-05-25T12:08:48.674Z,1020.52
2018-05-25T12:09:57.545Z,1020.55
2018-05-25T12:11:06.419Z,1020.61
2018-05-25T12:12:15.293Z,1020.56
2018-05-25T12:13:24.454Z,1020.56
2018-05-25T12:14:33.421Z,1020.6
2018-05-25T12:15:42.295Z,1020.65
2018-05-25T12:16:51.170Z,1020.64
2018-05-25T12:18:00.333Z,1020.61
2018-05-25T12:19:09.757Z,1020.59
2018-05-25T12:20:18.787Z,1020.59
2018-05-25T12:21:27.661Z,1020.52
2018-05-25T12:22:36.539Z,1020.56
2018-05-25T12:23:45.415Z,1020.53
2018-05-25T12:24:54.294Z,1020.57
2018-05-25T12:26:03.167Z,1020.6
2018-05-25T12:27:12.046Z,1020.58
2018-05-25T12:28:20.919Z,1020.62
2018-05-25T12:29:29.794Z,1020.63
2018-05-25T12:30:38.673Z,1020.61
2018-05-25T12:31:47.602Z,1020.59
2018-05-25T12:32:56.486Z,1020.68
2018-05-25T12:34:05.361Z,1020.62
2018-05-25T12:35:14.562Z,1020.56
2018-05-25T12:36:23.441Z,1020.56
2018-05-25T12:37:32.580Z,1020.53
2018-05-25T12:38:41.747Z,1020.52
2018-05-25T12:39:50.625Z,1020.54
2018-05-25T12:40:59.516Z,1020.55
2018-05-25T12:42:08.686Z,1020.54
2018-05-25T12:43:18.280Z,1020.51
2018-05-25T12:44:27.160Z,1020.51
2018-05-25T12:45:36.046Z,1020.58
2018-05-25T12:46:44.926Z,1020.56
2018-05-25T12:47:53.813Z,1020.51
2018-05-25T12:49:02.839Z,1020.57
2018-05-25T12:50:11.718Z,1020.52
2018-05-25T12:51:20.882Z,1020.55
2018-05-25T12:52:29.767Z,1020.51
2018-05-25T12:53:38.649Z,1020.5
2018-05-25T12:54:48.057Z,1020.47
2018-05-25T12:55:56.935Z,1020.47
2018-05-25T12:57:05.819Z,1020.47
2018-05-25T12:58:14.974Z,1020.53
2018-05-25T12:59:23.856Z,1020.56
2018-05-25T13:00:32.897Z,1020.6
2018-05-25T13:01:41.766Z,1020.66
2018-05-25T13:02:51.209Z,1020.57
2018-05-25T13:04:00.365Z,1020.54
2018-05-25T13:05:09.244Z,1020.5
2018-05-25T13:06:18.609Z,1020.47
2018-05-25T13:07:27.490Z,1020.46
2018-05-25T13:08:36.647Z,1020.48
2018-05-25T13:09:45.814Z,1020.5
2018-05-25T13:10:54.690Z,1020.59
2018-05-25T13:12:03.898Z,1020.43
2018-05-25T13:13:12.780Z,1020.47
2018-05-25T13:14:21.945Z,1020.46
2018-05-25T13:15:31.102Z,1020.48
2018-05-25T13:16:39.983Z,1020.46
2018-05-25T13:17:49.018Z,1020.47
2018-05-25T13:18:58.171Z,1020.44
2018-05-25T13:20:07.053Z,1020.41
2018-05-25T13:21:15.933Z,1020.4
2018-05-25T13:22:25.376Z,1020.46
2018-05-25T13:23:34.508Z,1020.58
2018-05-25T13:24:43.388Z,1020.55
2018-05-25T13:25:52.834Z,1020.55
2018-05-25T13:27:02.268Z,1020.56
2018-05-25T13:28:11.153Z,1020.4
2018-05-25T13:29:20.763Z,1020.52
2018-05-25T13:30:29.645Z,1020.54
2018-05-25T13:31:38.530Z,1020.54
2018-05-25T13:32:47.409Z,1020.61
2018-05-25T13:33:56.295Z,1020.6
2018-05-25T13:35:05.230Z,1020.59
2018-05-25T13:36:14.108Z,1020.65
2018-05-25T13:37:22.989Z,1020.52
2018-05-25T13:38:32.155Z,1020.7
2018-05-25T13:39:41.037Z,1020.63
2018-05-25T13:40:50.253Z,1020.6
2018-05-25T13:41:59.408Z,1020.6
2018-05-25T13:43:08.569Z,1020.57
2018-05-25T13:44:17.450Z,1020.62
2018-05-25T13:45:26.337Z,1020.67
2018-05-25T13:46:35.219Z,1020.68
2018-05-25T13:47:44.104Z,1020.7
2018-05-25T13:48:53.266Z,1020.63
2018-05-25T13:50:02.152Z,1020.65
2018-05-25T13:51:11.038Z,1020.58
2018-05-25T13:52:20.023Z,1020.58
2018-05-25T13:53:28.908Z,1020.61
2018-05-25T13:54:37.795Z,1020.62
2018-05-25T13:55:46.684Z,1020.64
2018-05-25T13:56:55.564Z,1020.61
2018-05-25T13:58:04.501Z,1020.59